< < Back
Terminal Aerodrome Forecast


Current Version              Previous Versions:   1  2  3  4  5  6  7  8  9  

Terminal Aerodrome Forecast

166
FTUS42 KJAX 040540
TAFSSI
TAF
KSSI 040540Z 0406/0506 22007KT P6SM FEW150 SCT250
     FM041400 24007KT P6SM SCT040 SCT250
     FM041900 15009KT P6SM VCTS SCT050CB BKN250
     FM050100 17008KT P6SM VCSH SCT050 BKN100
     FM050200 18007KT P6SM BKN100=



Latest METAR

976
SAUS70 KWBC 050400 RRB
MTRSSI
METAR KSSI 050353Z AUTO 22006KT 10SM CLR 24/23 A3013 RMK AO2 SLP205
T02390228


USA.gov is the U.S. government's official web portal to all federal, state and local government web resources and services.